FV76 weather

Kwekwe East Airport
Midlands Province, Zimbabwe

Public forecast

Using degrees Celsius for public forecast. Weather courtesy of forecast.io.

Closest aviation weather report (METAR) to Kwekwe East Airport

Report is more than 6 hours old.

Closest report is Thornhill Air Base, 27.2 nm (50.3 km) SSW. Retrieved 2018/02/05 12:00 UTC (2 years ago):

FVTL 051200Z 00000KT 9999 -RA BKN010 OVC080 21/19 Q1017

Closest aviation forecast (TAF) to Kwekwe East Airport

Forecast is more than 12 hours old.

Closest forecast is Thornhill Air Base, 27.2 nm (50.3 km) SSW. Retrieved 2014/01/24 05:00 UTC (6 years ago):

TAF FVTL 240400Z 2405/2418 VRB03KT 9999 BKN020 TEMPO 2410/2414 -TSRA FEW020CB BKN030 BKN080